Time;durP1;ratioP1;P1;durP2;ratioP2;P2;SDS_P1;SDS_P2;PMS_P1;PMS_P2;Temp;Humidity;BMP_temperature;BMP_pressure;BME280_temperature;BME280_humidity;BME280_pressure;Samples;Min_cycle;Max_cycle;Signal;HPM_P1;HPM_P2
2021/05/31 00:02:16;;;;;;;3.10;2.90;;;;;;;;;;5003699;28;20273;-71
2021/05/31 00:04:44;;;;;;;2.73;2.53;;;;;;;;;;5018376;28;20204;-73
2021/05/31 00:07:21;;;;;;;2.70;2.50;;;;;;;;;;5015657;28;20191;-72
2021/05/31 00:09:49;;;;;;;3.03;2.80;;;;;;;;;;5013112;28;20362;-73
2021/05/31 00:12:17;;;;;;;3.37;2.90;;;;;;;;;;5012750;28;20170;-72
2021/05/31 00:14:44;;;;;;;3.33;3.03;;;;;;;;;;5005960;28;20183;-71
2021/05/31 00:17:10;;;;;;;3.37;3.07;;;;;;;;;;5010577;28;20182;-71
2021/05/31 00:19:36;;;;;;;3.70;3.40;;;;;;;;;;5011997;28;20171;-71
2021/05/31 00:22:03;;;;;;;3.33;2.90;;;;;;;;;;5011500;28;20921;-71
2021/05/31 00:24:33;;;;;;;3.17;2.93;;;;;;;;;;5010251;28;20224;-72
2021/05/31 00:26:59;;;;;;;4.30;3.13;;;;;;;;;;5015755;28;20208;-72
2021/05/31 00:29:26;;;;;;;3.47;3.17;;;;;;;;;;5015612;28;20239;-72
2021/05/31 00:31:53;;;;;;;3.67;3.23;;;;;;;;;;5011261;28;20175;-71
2021/05/31 00:34:19;;;;;;;3.47;3.17;;;;;;;;;;4998767;28;20191;-71
2021/05/31 00:36:45;;;;;;;3.30;3.00;;;;;;;;;;4993930;28;20595;-71
2021/05/31 00:39:11;;;;;;;3.17;2.97;;;;;;;;;;5007933;28;20262;-71
2021/05/31 00:41:37;;;;;;;3.73;3.20;;;;;;;;;;5004764;28;20274;-71
2021/05/31 00:44:04;;;;;;;3.40;2.90;;;;;;;;;;5000361;28;20349;-72
2021/05/31 00:46:30;;;;;;;4.00;3.30;;;;;;;;;;5008409;28;20269;-71
2021/05/31 00:48:56;;;;;;;3.87;3.20;;;;;;;;;;5006984;28;20567;-70
2021/05/31 00:51:22;;;;;;;3.67;3.33;;;;;;;;;;5007896;28;20175;-71
2021/05/31 00:53:48;;;;;;;3.30;3.00;;;;;;;;;;5008095;28;20186;-68
2021/05/31 00:56:14;;;;;;;5.07;3.27;;;;;;;;;;5010698;28;20215;-68
2021/05/31 00:58:40;;;;;;;3.33;2.97;;;;;;;;;;5011866;28;20261;-70
2021/05/31 01:01:07;;;;;;;3.60;3.30;;;;;;;;;;5009262;28;20277;-68
2021/05/31 01:03:34;;;;;;;3.50;3.10;;;;;;;;;;5001970;28;20293;-70
2021/05/31 01:06:02;;;;;;;3.27;2.83;;;;;;;;;;5008405;28;20183;-68
2021/05/31 01:08:48;;;;;;;3.67;3.00;;;;;;;;;;5004735;28;20190;-70
2021/05/31 01:11:20;;;;;;;3.30;3.00;;;;;;;;;;4993131;28;20551;-68
2021/05/31 01:14:00;;;;;;;3.60;3.20;;;;;;;;;;5008449;28;20568;-67
2021/05/31 01:16:30;;;;;;;3.53;3.23;;;;;;;;;;5003866;28;20179;-68
2021/05/31 01:18:59;;;;;;;3.17;2.87;;;;;;;;;;5010332;28;20241;-68
2021/05/31 01:21:45;;;;;;;3.13;2.90;;;;;;;;;;4997956;28;20190;-68
2021/05/31 01:24:15;;;;;;;3.43;3.13;;;;;;;;;;5008111;28;20245;-67
2021/05/31 01:26:43;;;;;;;3.87;3.53;;;;;;;;;;5006643;28;20261;-67
2021/05/31 01:29:10;;;;;;;5.13;3.20;;;;;;;;;;5010195;28;20201;-70
2021/05/31 01:31:42;;;;;;;3.33;3.03;;;;;;;;;;5005521;28;20193;-66
2021/05/31 01:34:10;;;;;;;3.67;2.90;;;;;;;;;;5008795;28;20933;-68
2021/05/31 01:36:39;;;;;;;4.67;3.37;;;;;;;;;;5006892;28;20183;-67
2021/05/31 01:39:06;;;;;;;3.40;3.10;;;;;;;;;;5001592;28;20716;-67
2021/05/31 01:41:32;;;;;;;3.47;3.17;;;;;;;;;;5003878;28;20178;-65
2021/05/31 01:43:59;;;;;;;3.80;3.07;;;;;;;;;;5002353;28;20408;-67
2021/05/31 01:46:25;;;;;;;3.10;2.90;;;;;;;;;;5007022;28;20206;-66
2021/05/31 01:48:52;;;;;;;3.50;3.20;;;;;;;;;;5008820;28;20182;-67
2021/05/31 01:51:19;;;;;;;3.37;3.07;;;;;;;;;;5008849;28;20551;-68
2021/05/31 01:53:46;;;;;;;3.43;2.80;;;;;;;;;;5006840;28;20594;-66
2021/05/31 01:56:13;;;;;;;3.40;3.07;;;;;;;;;;4997624;28;20222;-68
2021/05/31 01:58:40;;;;;;;3.70;3.40;;;;;;;;;;5000855;28;20198;-69
2021/05/31 02:01:08;;;;;;;3.67;3.37;;;;;;;;;;5007079;28;20194;-68
2021/05/31 02:03:34;;;;;;;4.90;3.50;;;;;;;;;;5008717;28;21034;-68
2021/05/31 02:06:00;;;;;;;3.20;3.00;;;;;;;;;;5008751;28;20190;-69
2021/05/31 02:08:26;;;;;;;3.33;3.03;;;;;;;;;;5005725;28;20652;-68
2021/05/31 02:10:52;;;;;;;4.40;3.00;;;;;;;;;;4989769;28;20171;-68
2021/05/31 02:13:19;;;;;;;4.30;3.87;;;;;;;;;;4998036;28;20220;-68
2021/05/31 02:15:48;;;;;;;3.33;3.03;;;;;;;;;;5005814;28;20217;-69
2021/05/31 02:18:25;;;;;;;3.67;3.37;;;;;;;;;;5012898;28;20633;-69
2021/05/31 02:21:06;;;;;;;3.30;3.10;;;;;;;;;;5008233;28;20234;-69
2021/05/31 02:23:33;;;;;;;3.03;2.80;;;;;;;;;;5006459;28;20195;-68
2021/05/31 02:25:59;;;;;;;3.67;3.37;;;;;;;;;;4993428;28;20175;-69
2021/05/31 02:28:25;;;;;;;3.20;2.97;;;;;;;;;;5008575;28;20253;-68
2021/05/31 02:30:53;;;;;;;3.90;3.33;;;;;;;;;;5009836;28;20589;-68
2021/05/31 02:33:23;;;;;;;2.97;2.77;;;;;;;;;;5003483;28;20237;-70
2021/05/31 02:35:49;;;;;;;3.87;3.57;;;;;;;;;;5008857;28;20191;-68
2021/05/31 02:38:15;;;;;;;3.40;3.13;;;;;;;;;;5000415;28;20252;-68
2021/05/31 02:40:41;;;;;;;3.33;3.03;;;;;;;;;;5010994;28;20321;-68
2021/05/31 02:43:09;;;;;;;3.83;3.47;;;;;;;;;;5010739;28;20680;-68
2021/05/31 02:45:35;;;;;;;3.03;2.80;;;;;;;;;;5011535;28;20783;-69
2021/05/31 02:48:02;;;;;;;3.57;3.27;;;;;;;;;;5009918;28;20225;-69
2021/05/31 02:50:28;;;;;;;5.87;3.60;;;;;;;;;;4995981;28;20180;-68
2021/05/31 02:52:55;;;;;;;4.10;3.70;;;;;;;;;;5005932;28;20272;-69
2021/05/31 02:55:22;;;;;;;3.57;3.27;;;;;;;;;;4992109;28;20215;-68
2021/05/31 02:57:49;;;;;;;6.37;3.70;;;;;;;;;;5003412;28;20182;-68
2021/05/31 03:00:16;;;;;;;3.60;3.30;;;;;;;;;;5004016;28;20194;-70
2021/05/31 03:02:42;;;;;;;3.60;3.30;;;;;;;;;;5023710;28;20691;-67
2021/05/31 03:05:10;;;;;;;3.73;3.43;;;;;;;;;;5005949;28;20183;-68
2021/05/31 03:07:36;;;;;;;3.63;3.33;;;;;;;;;;5006093;28;20256;-68
2021/05/31 03:10:03;;;;;;;4.07;3.67;;;;;;;;;;5007440;28;20190;-67
2021/05/31 03:12:29;;;;;;;3.50;3.20;;;;;;;;;;4995633;28;20645;-68
2021/05/31 03:14:55;;;;;;;3.90;3.50;;;;;;;;;;5011426;28;20209;-67
2021/05/31 03:17:21;;;;;;;3.70;3.40;;;;;;;;;;5014223;28;20253;-68
2021/05/31 03:19:48;;;;;;;5.40;3.70;;;;;;;;;;5011111;28;20228;-68
2021/05/31 03:22:14;;;;;;;4.00;3.60;;;;;;;;;;5005267;28;20179;-67
2021/05/31 03:24:40;;;;;;;3.63;3.33;;;;;;;;;;5012375;28;20218;-69
2021/05/31 03:27:06;;;;;;;3.53;3.23;;;;;;;;;;4996489;28;20190;-67
2021/05/31 03:29:32;;;;;;;3.47;3.17;;;;;;;;;;5007717;28;20183;-67
2021/05/31 03:31:58;;;;;;;3.67;3.37;;;;;;;;;;5008759;28;20174;-67
2021/05/31 03:34:24;;;;;;;3.97;3.40;;;;;;;;;;5010573;28;20183;-67
2021/05/31 03:36:50;;;;;;;3.57;3.23;;;;;;;;;;5011029;28;20720;-69
2021/05/31 03:39:16;;;;;;;4.47;3.37;;;;;;;;;;5009812;28;20532;-67
2021/05/31 03:41:42;;;;;;;3.67;3.37;;;;;;;;;;4993854;28;20190;-67
2021/05/31 03:44:09;;;;;;;4.10;3.40;;;;;;;;;;5007395;28;20207;-68
2021/05/31 03:46:35;;;;;;;4.43;4.03;;;;;;;;;;5005797;28;20244;-67
2021/05/31 03:49:01;;;;;;;3.93;3.53;;;;;;;;;;5008031;28;20172;-67
2021/05/31 03:51:27;;;;;;;5.53;3.63;;;;;;;;;;5009490;28;20654;-67
2021/05/31 03:53:54;;;;;;;4.50;3.43;;;;;;;;;;5021123;28;20213;-67
2021/05/31 03:56:20;;;;;;;4.07;3.73;;;;;;;;;;5005247;28;20277;-67
2021/05/31 03:58:47;;;;;;;3.97;3.57;;;;;;;;;;5003583;28;20614;-67
2021/05/31 04:01:14;;;;;;;3.70;3.40;;;;;;;;;;5009231;28;20192;-67
2021/05/31 04:03:41;;;;;;;4.07;3.67;;;;;;;;;;5008483;28;20224;-68
2021/05/31 04:06:21;;;;;;;3.73;3.43;;;;;;;;;;5009057;28;20179;-68
2021/05/31 04:11:38;;;;;;;3.63;3.30;;;;;;;;;;5003710;28;20230;-67
2021/05/31 04:14:05;;;;;;;4.00;3.60;;;;;;;;;;5005197;28;20189;-68
2021/05/31 04:16:31;;;;;;;3.27;3.07;;;;;;;;;;5009196;28;20265;-68
2021/05/31 04:18:57;;;;;;;3.97;3.57;;;;;;;;;;5008716;28;20186;-68
2021/05/31 04:21:23;;;;;;;6.20;3.53;;;;;;;;;;5009723;28;20174;-68
2021/05/31 04:23:49;;;;;;;4.97;3.93;;;;;;;;;;5005796;28;20665;-68
2021/05/31 04:26:15;;;;;;;3.50;3.20;;;;;;;;;;5003045;28;20202;-67
2021/05/31 04:28:42;;;;;;;3.93;3.60;;;;;;;;;;5000562;28;20557;-69
2021/05/31 04:31:08;;;;;;;6.73;3.70;;;;;;;;;;4992209;28;20191;-68
2021/05/31 04:33:34;;;;;;;4.10;3.70;;;;;;;;;;4999258;28;20179;-67
2021/05/31 04:36:00;;;;;;;4.00;3.67;;;;;;;;;;4989903;28;20187;-67
2021/05/31 04:38:26;;;;;;;4.23;3.63;;;;;;;;;;5005707;28;20174;-67
2021/05/31 04:40:52;;;;;;;3.93;3.53;;;;;;;;;;4996445;28;20187;-68
2021/05/31 04:43:19;;;;;;;4.00;3.70;;;;;;;;;;4999655;28;20202;-67
2021/05/31 04:45:45;;;;;;;4.27;3.80;;;;;;;;;;4999619;28;20215;-67
2021/05/31 04:48:11;;;;;;;3.37;3.07;;;;;;;;;;4997582;28;20187;-69
2021/05/31 04:50:37;;;;;;;5.23;3.70;;;;;;;;;;5006967;28;20182;-70
2021/05/31 04:53:03;;;;;;;4.53;3.40;;;;;;;;;;5006104;28;20242;-68
2021/05/31 04:55:29;;;;;;;3.80;3.40;;;;;;;;;;5007989;28;20701;-68
2021/05/31 04:57:55;;;;;;;3.77;3.17;;;;;;;;;;5008970;28;20189;-68
2021/05/31 05:00:21;;;;;;;3.90;3.60;;;;;;;;;;5008138;28;20569;-68
2021/05/31 05:02:47;;;;;;;3.63;3.30;;;;;;;;;;5007515;28;20202;-69
2021/05/31 05:05:14;;;;;;;4.00;3.57;;;;;;;;;;5007295;28;20255;-69
2021/05/31 05:07:45;;;;;;;4.27;3.57;;;;;;;;;;5009642;28;20521;-69
2021/05/31 05:10:21;;;;;;;4.20;3.80;;;;;;;;;;4992163;28;20183;-69
2021/05/31 05:12:48;;;;;;;4.07;3.67;;;;;;;;;;5004345;28;20577;-69
2021/05/31 05:15:14;;;;;;;4.67;3.60;;;;;;;;;;5027610;28;20184;-69
2021/05/31 05:17:40;;;;;;;4.83;3.63;;;;;;;;;;5025835;28;20186;-69
2021/05/31 05:20:07;;;;;;;4.50;4.07;;;;;;;;;;5007304;28;22498;-70
2021/05/31 05:22:33;;;;;;;4.10;3.70;;;;;;;;;;5004151;28;20182;-69
2021/05/31 05:24:59;;;;;;;4.50;4.10;;;;;;;;;;5009152;28;20821;-69
2021/05/31 05:27:26;;;;;;;4.37;3.93;;;;;;;;;;5009951;28;20206;-69
2021/05/31 05:29:52;;;;;;;4.20;3.80;;;;;;;;;;5008328;28;20174;-69
2021/05/31 05:32:18;;;;;;;3.63;3.30;;;;;;;;;;5010913;28;20171;-70
2021/05/31 05:34:44;;;;;;;3.77;3.43;;;;;;;;;;5029641;28;20184;-69
2021/05/31 05:37:15;;;;;;;6.63;4.13;;;;;;;;;;5018944;28;20633;-69
2021/05/31 05:45:12;;;;;;;4.27;3.87;;;;;;;;;;5010121;28;20310;-69
2021/05/31 05:47:47;;;;;;;4.67;4.07;;;;;;;;;;5002733;28;20685;-69
2021/05/31 05:50:18;;;;;;;4.63;3.97;;;;;;;;;;4987597;28;20500;-69
2021/05/31 05:52:44;;;;;;;4.20;3.47;;;;;;;;;;4996617;28;20277;-69
2021/05/31 05:55:11;;;;;;;4.17;3.77;;;;;;;;;;5007743;28;20216;-69
2021/05/31 05:57:38;;;;;;;4.27;3.87;;;;;;;;;;4993579;28;20205;-69
2021/05/31 06:00:09;;;;;;;4.23;3.83;;;;;;;;;;5009136;28;20216;-70
2021/05/31 06:02:35;;;;;;;4.13;3.73;;;;;;;;;;5020912;28;20176;-69
2021/05/31 06:05:01;;;;;;;4.27;3.63;;;;;;;;;;5029218;28;20162;-69
2021/05/31 06:07:29;;;;;;;4.80;3.70;;;;;;;;;;5014113;28;20775;-69
2021/05/31 06:09:55;;;;;;;3.83;3.50;;;;;;;;;;5008022;28;20629;-69
2021/05/31 06:12:22;;;;;;;3.90;3.33;;;;;;;;;;5007646;28;20178;-70
2021/05/31 06:14:48;;;;;;;4.63;3.57;;;;;;;;;;5007041;28;20183;-68
2021/05/31 06:17:14;;;;;;;4.47;4.07;;;;;;;;;;5009224;28;20186;-70
2021/05/31 06:19:40;;;;;;;5.60;4.30;;;;;;;;;;5008374;28;20186;-69
2021/05/31 06:22:06;;;;;;;4.43;3.83;;;;;;;;;;5009484;28;20252;-68
2021/05/31 06:24:32;;;;;;;4.23;3.83;;;;;;;;;;5001429;28;20934;-69
2021/05/31 06:26:58;;;;;;;4.97;4.30;;;;;;;;;;5008954;28;20184;-68
2021/05/31 06:29:24;;;;;;;4.07;3.77;;;;;;;;;;5006630;28;20182;-70
2021/05/31 06:31:51;;;;;;;4.73;4.33;;;;;;;;;;5006788;28;20217;-69
2021/05/31 06:34:17;;;;;;;4.17;3.77;;;;;;;;;;5001272;28;20184;-69
2021/05/31 06:36:43;;;;;;;4.17;3.77;;;;;;;;;;5008668;28;20186;-64
2021/05/31 06:39:11;;;;;;;5.03;4.53;;;;;;;;;;5010079;28;20283;-67
2021/05/31 06:41:37;;;;;;;6.60;4.73;;;;;;;;;;5007740;28;20182;-64
2021/05/31 06:44:04;;;;;;;8.03;5.73;;;;;;;;;;5008442;28;20214;-68
2021/05/31 06:46:30;;;;;;;9.47;6.30;;;;;;;;;;5028134;28;20174;-67
2021/05/31 06:48:56;;;;;;;9.37;6.60;;;;;;;;;;5008816;28;20182;-68
2021/05/31 06:51:22;;;;;;;9.63;6.67;;;;;;;;;;5013171;28;20190;-69
2021/05/31 06:53:49;;;;;;;7.23;5.53;;;;;;;;;;5009435;28;20190;-68
2021/05/31 06:56:16;;;;;;;9.03;6.00;;;;;;;;;;5021886;28;20232;-67
2021/05/31 06:58:42;;;;;;;10.73;6.37;;;;;;;;;;5007423;28;20222;-66
2021/05/31 07:01:10;;;;;;;9.23;6.43;;;;;;;;;;5007109;28;20194;-66
2021/05/31 07:03:36;;;;;;;9.63;7.00;;;;;;;;;;5011102;28;20203;-65
2021/05/31 07:06:02;;;;;;;6.90;5.77;;;;;;;;;;5011375;28;20186;-66
2021/05/31 07:08:30;;;;;;;7.93;6.50;;;;;;;;;;5010817;28;20680;-66
2021/05/31 07:10:57;;;;;;;9.30;6.70;;;;;;;;;;5011515;28;20174;-65
2021/05/31 07:13:24;;;;;;;11.77;6.37;;;;;;;;;;5009770;28;20283;-66
2021/05/31 07:15:51;;;;;;;12.83;6.17;;;;;;;;;;5015192;28;20190;-66
2021/05/31 07:18:19;;;;;;;9.47;5.83;;;;;;;;;;5012851;28;20530;-65
2021/05/31 07:20:46;;;;;;;10.73;5.70;;;;;;;;;;5008107;28;20252;-66
2021/05/31 07:23:12;;;;;;;9.80;5.90;;;;;;;;;;5004433;28;20313;-65
2021/05/31 07:25:38;;;;;;;8.20;6.37;;;;;;;;;;5011285;28;20199;-65
2021/05/31 07:28:04;;;;;;;8.10;5.67;;;;;;;;;;5024373;28;20676;-65
2021/05/31 07:30:31;;;;;;;12.70;6.23;;;;;;;;;;5011976;28;20186;-66
2021/05/31 07:32:57;;;;;;;11.97;7.17;;;;;;;;;;5012302;28;20265;-66
2021/05/31 07:35:23;;;;;;;14.40;6.67;;;;;;;;;;5010763;28;20185;-65
2021/05/31 07:37:50;;;;;;;14.17;6.03;;;;;;;;;;5007523;28;20670;-65
2021/05/31 07:40:16;;;;;;;12.17;6.37;;;;;;;;;;4991972;28;20175;-65
2021/05/31 07:42:43;;;;;;;6.53;5.30;;;;;;;;;;5009692;28;21143;-65
2021/05/31 07:45:10;;;;;;;7.03;5.63;;;;;;;;;;5031638;28;20576;-65
2021/05/31 07:47:36;;;;;;;8.53;5.47;;;;;;;;;;5018816;28;20646;-65
2021/05/31 07:50:04;;;;;;;5.93;5.00;;;;;;;;;;5010419;28;20641;-65
2021/05/31 07:52:30;;;;;;;7.83;5.17;;;;;;;;;;5010991;28;20520;-66
2021/05/31 07:54:56;;;;;;;8.07;5.63;;;;;;;;;;5007529;28;20249;-67
2021/05/31 07:57:23;;;;;;;9.70;5.40;;;;;;;;;;5009750;28;20700;-66
2021/05/31 07:59:51;;;;;;;10.37;5.87;;;;;;;;;;5011576;28;20189;-66
2021/05/31 08:02:17;;;;;;;6.90;5.37;;;;;;;;;;5011897;28;20224;-67
2021/05/31 08:04:43;;;;;;;10.83;5.20;;;;;;;;;;5018396;28;20252;-67
2021/05/31 08:07:10;;;;;;;10.17;5.73;;;;;;;;;;5019884;28;20574;-66
2021/05/31 08:09:36;;;;;;;12.13;5.53;;;;;;;;;;5018719;28;20204;-67
2021/05/31 08:12:02;;;;;;;9.37;6.57;;;;;;;;;;5011709;28;20276;-66
2021/05/31 08:14:28;;;;;;;6.03;4.93;;;;;;;;;;5010529;28;20190;-66
2021/05/31 08:16:55;;;;;;;8.93;5.43;;;;;;;;;;5011673;28;20178;-66
2021/05/31 08:19:21;;;;;;;7.03;4.80;;;;;;;;;;5009957;28;20182;-65
2021/05/31 08:21:48;;;;;;;7.20;5.57;;;;;;;;;;5009653;28;20514;-66
2021/05/31 08:24:14;;;;;;;6.77;5.97;;;;;;;;;;5010114;28;20723;-65
2021/05/31 08:26:41;;;;;;;8.93;5.53;;;;;;;;;;5009752;28;20232;-65
2021/05/31 08:29:07;;;;;;;7.97;5.20;;;;;;;;;;5006840;28;20189;-65
2021/05/31 08:31:33;;;;;;;8.17;5.87;;;;;;;;;;5010314;28;20337;-66
2021/05/31 08:34:00;;;;;;;10.57;5.90;;;;;;;;;;5010251;28;20462;-66
2021/05/31 08:36:26;;;;;;;5.93;5.33;;;;;;;;;;5007741;28;20182;-66
2021/05/31 08:38:57;;;;;;;5.93;5.33;;;;;;;;;;5007888;28;20190;-66
2021/05/31 08:41:23;;;;;;;6.00;5.40;;;;;;;;;;5008878;28;20190;-66
2021/05/31 08:43:49;;;;;;;7.80;5.60;;;;;;;;;;5010353;28;20216;-66
2021/05/31 08:46:15;;;;;;;7.33;5.27;;;;;;;;;;5007641;28;20174;-65
2021/05/31 08:48:42;;;;;;;8.63;5.63;;;;;;;;;;5022835;28;20186;-67
2021/05/31 08:51:08;;;;;;;6.23;5.00;;;;;;;;;;5010120;28;20637;-66
2021/05/31 08:53:35;;;;;;;8.27;5.80;;;;;;;;;;5012021;28;20659;-67
2021/05/31 08:56:01;;;;;;;7.20;5.67;;;;;;;;;;5019000;28;20592;-66
2021/05/31 08:58:27;;;;;;;6.77;4.73;;;;;;;;;;5014871;28;20185;-66
2021/05/31 09:00:54;;;;;;;5.37;4.80;;;;;;;;;;5009828;28;20196;-67
2021/05/31 09:03:20;;;;;;;6.60;5.10;;;;;;;;;;5001666;28;20217;-66
2021/05/31 09:05:46;;;;;;;7.07;4.80;;;;;;;;;;4990899;28;20163;-67
2021/05/31 09:08:13;;;;;;;7.30;4.60;;;;;;;;;;4999453;28;20178;-67
2021/05/31 09:10:47;;;;;;;6.47;4.67;;;;;;;;;;5010301;28;20198;-67
2021/05/31 09:13:14;;;;;;;4.90;3.90;;;;;;;;;;5012461;28;20522;-66
2021/05/31 09:15:44;;;;;;;6.17;3.90;;;;;;;;;;5010030;28;20186;-67
2021/05/31 09:18:10;;;;;;;7.10;4.30;;;;;;;;;;5011675;28;20186;-66
2021/05/31 09:20:36;;;;;;;4.77;4.30;;;;;;;;;;4998817;28;20191;-66
2021/05/31 09:23:02;;;;;;;4.87;4.37;;;;;;;;;;5008868;28;20198;-67
2021/05/31 09:25:33;;;;;;;5.07;4.03;;;;;;;;;;5008085;28;20174;-66
2021/05/31 09:28:01;;;;;;;5.53;3.77;;;;;;;;;;5014057;28;20186;-66
2021/05/31 09:30:38;;;;;;;5.40;4.80;;;;;;;;;;5006016;28;20182;-68
2021/05/31 09:33:04;;;;;;;7.10;4.30;;;;;;;;;;5010377;28;20894;-66
2021/05/31 09:35:30;;;;;;;6.20;4.20;;;;;;;;;;5010129;28;20166;-65
2021/05/31 09:38:01;;;;;;;7.27;4.97;;;;;;;;;;5009025;28;20532;-66
2021/05/31 09:40:27;;;;;;;5.47;4.20;;;;;;;;;;5008230;28;20820;-67
2021/05/31 09:42:54;;;;;;;5.13;4.07;;;;;;;;;;5009619;28;20256;-67
2021/05/31 09:45:22;;;;;;;5.00;4.50;;;;;;;;;;5016918;28;20190;-66
2021/05/31 09:47:48;;;;;;;5.53;4.23;;;;;;;;;;5020613;28;20183;-68
2021/05/31 09:50:22;;;;;;;5.67;4.40;;;;;;;;;;5009906;28;20657;-67
2021/05/31 09:52:48;;;;;;;6.47;3.90;;;;;;;;;;5007583;28;20584;-69
2021/05/31 09:55:14;;;;;;;5.67;4.57;;;;;;;;;;4994379;28;20214;-68
2021/05/31 09:57:40;;;;;;;7.73;4.07;;;;;;;;;;5007949;28;20187;-67
2021/05/31 10:00:09;;;;;;;5.87;3.83;;;;;;;;;;5008354;28;20179;-67
2021/05/31 10:05:17;;;;;;;7.30;3.77;;;;;;;;;;5009843;28;20180;-68
2021/05/31 10:07:56;;;;;;;6.10;4.97;;;;;;;;;;5009683;28;20181;-68
2021/05/31 10:10:22;;;;;;;12.60;4.70;;;;;;;;;;5023943;28;20604;-68
2021/05/31 10:12:48;;;;;;;6.50;4.07;;;;;;;;;;5007879;28;20261;-67
2021/05/31 10:15:17;;;;;;;5.83;4.17;;;;;;;;;;5004355;28;20178;-68
2021/05/31 10:17:43;;;;;;;4.70;3.90;;;;;;;;;;5007849;28;20177;-67
2021/05/31 10:20:09;;;;;;;5.10;4.30;;;;;;;;;;5011860;28;20181;-67
2021/05/31 10:22:36;;;;;;;6.10;4.60;;;;;;;;;;5008430;28;20257;-68
2021/05/31 10:25:05;;;;;;;4.00;3.70;;;;;;;;;;5007759;28;20186;-67
2021/05/31 10:27:31;;;;;;;6.97;4.20;;;;;;;;;;5007078;28;20182;-67
2021/05/31 10:29:58;;;;;;;6.70;4.10;;;;;;;;;;4995582;28;20184;-68
2021/05/31 10:32:26;;;;;;;5.87;4.00;;;;;;;;;;5006838;28;20171;-68
2021/05/31 10:34:53;;;;;;;4.93;4.33;;;;;;;;;;5007322;28;20197;-67
2021/05/31 10:37:22;;;;;;;4.43;3.93;;;;;;;;;;5012076;28;20175;-67
2021/05/31 10:39:58;;;;;;;5.20;4.20;;;;;;;;;;5011237;28;20191;-67
2021/05/31 10:42:24;;;;;;;11.90;4.47;;;;;;;;;;4995507;28;20280;-67
2021/05/31 10:44:50;;;;;;;4.40;3.80;;;;;;;;;;5007560;28;20242;-67
2021/05/31 10:47:24;;;;;;;4.97;4.37;;;;;;;;;;5001224;28;20207;-67
2021/05/31 10:49:54;;;;;;;4.80;3.97;;;;;;;;;;5012833;28;20168;-67
2021/05/31 10:52:20;;;;;;;5.30;3.80;;;;;;;;;;5010895;28;20238;-68
2021/05/31 10:54:46;;;;;;;4.57;4.10;;;;;;;;;;5010705;28;20503;-68
2021/05/31 10:57:12;;;;;;;5.63;4.77;;;;;;;;;;5012601;28;20183;-67
2021/05/31 10:59:49;;;;;;;5.23;4.53;;;;;;;;;;5014801;28;20182;-69
2021/05/31 11:02:26;;;;;;;5.60;4.22;;;;;;;;;;5003819;28;20432;-68
2021/05/31 11:04:52;;;;;;;4.83;4.33;;;;;;;;;;5012169;28;20215;-67
2021/05/31 11:07:25;;;;;;;6.03;4.43;;;;;;;;;;5011197;28;20254;-67
2021/05/31 11:09:53;;;;;;;4.80;4.23;;;;;;;;;;5014717;28;20581;-67
2021/05/31 11:12:27;;;;;;;5.00;4.40;;;;;;;;;;5010231;28;20195;-68
2021/05/31 11:14:53;;;;;;;5.63;4.20;;;;;;;;;;5011489;28;20177;-69
2021/05/31 11:17:23;;;;;;;5.63;4.37;;;;;;;;;;5011575;28;20181;-68
2021/05/31 11:19:51;;;;;;;4.80;3.90;;;;;;;;;;5002201;28;20247;-67
2021/05/31 11:22:27;;;;;;;6.43;4.70;;;;;;;;;;5011843;28;20177;-67
2021/05/31 11:24:58;;;;;;;5.57;4.43;;;;;;;;;;5009247;28;20213;-67
2021/05/31 11:27:25;;;;;;;6.10;4.50;;;;;;;;;;5000100;28;20202;-69
2021/05/31 11:29:52;;;;;;;5.23;4.70;;;;;;;;;;5010128;28;20219;-66
2021/05/31 11:32:19;;;;;;;5.70;4.27;;;;;;;;;;5010789;28;20242;-67
2021/05/31 11:34:57;;;;;;;5.20;4.37;;;;;;;;;;5011676;28;20613;-68
2021/05/31 11:37:24;;;;;;;5.13;3.90;;;;;;;;;;4993207;28;20216;-67
2021/05/31 11:39:50;;;;;;;4.83;3.90;;;;;;;;;;5010311;28;20205;-67
2021/05/31 11:42:17;;;;;;;5.27;3.93;;;;;;;;;;5011413;28;20204;-68
2021/05/31 11:44:52;;;;;;;5.80;4.70;;;;;;;;;;5011893;28;20197;-67
2021/05/31 11:47:22;;;;;;;5.90;5.30;;;;;;;;;;5007370;28;20160;-67
2021/05/31 11:49:48;;;;;;;5.80;4.80;;;;;;;;;;5011285;28;20190;-67
2021/05/31 11:52:14;;;;;;;9.67;4.77;;;;;;;;;;5008735;28;20188;-67
2021/05/31 11:54:40;;;;;;;5.17;4.47;;;;;;;;;;5008807;28;20229;-70
2021/05/31 11:57:20;;;;;;;8.17;4.70;;;;;;;;;;5010798;28;20195;-67
2021/05/31 11:59:47;;;;;;;6.40;4.60;;;;;;;;;;5011322;28;20641;-68
2021/05/31 12:02:14;;;;;;;4.57;4.10;;;;;;;;;;5011438;28;20181;-67
2021/05/31 12:04:42;;;;;;;8.70;4.60;;;;;;;;;;5009609;28;20217;-69
2021/05/31 12:07:09;;;;;;;6.47;4.47;;;;;;;;;;5009865;28;20178;-67
2021/05/31 12:09:42;;;;;;;8.23;4.33;;;;;;;;;;5013710;28;20189;-67
2021/05/31 12:12:09;;;;;;;7.70;4.10;;;;;;;;;;5009886;28;20248;-67
2021/05/31 12:14:42;;;;;;;6.97;4.47;;;;;;;;;;5031006;28;20215;-68
2021/05/31 12:17:11;;;;;;;7.60;5.23;;;;;;;;;;5010586;28;20181;-67
2021/05/31 12:19:37;;;;;;;9.00;4.40;;;;;;;;;;5010463;28;20185;-68
2021/05/31 12:22:04;;;;;;;6.27;4.50;;;;;;;;;;5011053;28;20622;-67
2021/05/31 12:24:31;;;;;;;4.97;4.40;;;;;;;;;;5009608;28;20556;-68
2021/05/31 12:26:58;;;;;;;5.20;4.10;;;;;;;;;;5009238;28;20265;-68
2021/05/31 12:29:38;;;;;;;5.43;4.87;;;;;;;;;;5009734;28;20217;-69
2021/05/31 12:32:09;;;;;;;6.23;4.33;;;;;;;;;;4991779;28;20539;-68
2021/05/31 12:34:35;;;;;;;6.77;4.57;;;;;;;;;;4991945;28;20297;-67
2021/05/31 12:37:02;;;;;;;6.93;4.30;;;;;;;;;;5011071;28;20189;-68
2021/05/31 12:39:29;;;;;;;5.63;4.17;;;;;;;;;;5010163;28;20187;-69
2021/05/31 12:41:55;;;;;;;5.67;3.90;;;;;;;;;;5009930;28;20202;-67
2021/05/31 12:44:27;;;;;;;6.60;4.50;;;;;;;;;;5003247;28;20286;-68
2021/05/31 12:46:53;;;;;;;5.10;3.93;;;;;;;;;;5008972;28;20188;-67
2021/05/31 12:49:26;;;;;;;6.00;4.00;;;;;;;;;;5010712;28;20174;-67
2021/05/31 12:51:53;;;;;;;4.40;4.00;;;;;;;;;;5010357;28;20167;-68
2021/05/31 12:54:20;;;;;;;6.17;3.87;;;;;;;;;;5006975;28;20724;-68
2021/05/31 12:56:46;;;;;;;6.87;3.80;;;;;;;;;;4995534;28;20266;-67
2021/05/31 12:59:12;;;;;;;6.10;4.10;;;;;;;;;;5006201;28;20171;-68
2021/05/31 13:01:41;;;;;;;4.50;4.10;;;;;;;;;;5000234;28;20183;-67
2021/05/31 13:04:07;;;;;;;5.50;4.20;;;;;;;;;;5007002;28;20260;-68
2021/05/31 13:06:34;;;;;;;4.83;3.63;;;;;;;;;;5010296;28;20174;-67
2021/05/31 13:09:01;;;;;;;5.13;3.60;;;;;;;;;;5010442;28;20641;-67
2021/05/31 13:11:38;;;;;;;6.37;4.07;;;;;;;;;;5009201;28;20258;-69
2021/05/31 13:14:13;;;;;;;7.10;3.70;;;;;;;;;;5010587;28;20186;-68
2021/05/31 13:16:39;;;;;;;4.03;3.53;;;;;;;;;;5010096;28;20542;-67
2021/05/31 13:19:15;;;;;;;5.60;3.67;;;;;;;;;;4998611;28;20539;-68
2021/05/31 13:21:41;;;;;;;5.70;3.80;;;;;;;;;;5009973;28;20175;-67
2021/05/31 13:24:07;;;;;;;3.90;3.10;;;;;;;;;;5008730;28;20234;-70
2021/05/31 13:26:35;;;;;;;4.17;3.77;;;;;;;;;;5009342;28;20217;-68
2021/05/31 13:29:01;;;;;;;5.03;3.63;;;;;;;;;;5001711;28;20768;-68
2021/05/31 13:31:28;;;;;;;3.87;3.57;;;;;;;;;;5009890;28;20182;-67
2021/05/31 13:33:55;;;;;;;6.17;4.00;;;;;;;;;;5009849;28;20449;-67
2021/05/31 13:36:25;;;;;;;6.00;4.07;;;;;;;;;;5004065;28;20188;-67
2021/05/31 13:38:51;;;;;;;4.70;3.73;;;;;;;;;;5011279;28;20221;-67
2021/05/31 13:41:17;;;;;;;4.60;3.97;;;;;;;;;;5009201;28;20634;-69
2021/05/31 13:43:53;;;;;;;3.57;3.03;;;;;;;;;;5003776;28;20213;-67
2021/05/31 13:46:19;;;;;;;7.13;4.60;;;;;;;;;;5005178;28;20170;-67
2021/05/31 13:48:46;;;;;;;4.27;3.60;;;;;;;;;;5008941;28;20241;-67
2021/05/31 13:51:12;;;;;;;5.47;3.80;;;;;;;;;;5006206;28;20182;-69
2021/05/31 13:53:38;;;;;;;4.43;3.33;;;;;;;;;;5005705;28;20569;-68
2021/05/31 13:56:04;;;;;;;6.57;4.60;;;;;;;;;;5000945;28;20233;-67
2021/05/31 13:58:30;;;;;;;8.50;4.30;;;;;;;;;;5009483;28;20702;-68
2021/05/31 14:00:56;;;;;;;5.30;4.00;;;;;;;;;;5009238;28;20277;-67
2021/05/31 14:03:23;;;;;;;5.63;4.03;;;;;;;;;;5020019;28;20554;-69
2021/05/31 14:05:50;;;;;;;9.47;4.60;;;;;;;;;;4998741;28;20208;-68
2021/05/31 14:08:17;;;;;;;5.73;4.50;;;;;;;;;;5008497;28;20185;-67
2021/05/31 14:10:43;;;;;;;4.23;3.90;;;;;;;;;;5010876;28;20201;-67
2021/05/31 14:13:10;;;;;;;5.23;3.97;;;;;;;;;;5011819;28;20209;-67
2021/05/31 14:15:37;;;;;;;5.33;3.63;;;;;;;;;;5013583;28;20625;-67
2021/05/31 14:18:03;;;;;;;4.40;4.00;;;;;;;;;;5013995;28;20193;-70
2021/05/31 14:20:30;;;;;;;5.37;3.70;;;;;;;;;;5012111;28;20700;-68
2021/05/31 14:23:00;;;;;;;5.10;3.70;;;;;;;;;;5018718;28;20206;-68
2021/05/31 14:25:26;;;;;;;4.63;4.20;;;;;;;;;;5023465;28;20178;-68
2021/05/31 14:27:53;;;;;;;5.20;4.10;;;;;;;;;;5006269;28;20178;-67
2021/05/31 14:30:20;;;;;;;5.73;4.13;;;;;;;;;;5012325;28;20171;-68
2021/05/31 14:32:46;;;;;;;5.73;4.27;;;;;;;;;;5017811;28;20524;-68
2021/05/31 14:35:13;;;;;;;4.77;4.37;;;;;;;;;;5008664;28;20213;-67
2021/05/31 14:37:39;;;;;;;5.60;4.50;;;;;;;;;;5012489;28;20652;-68
2021/05/31 14:40:07;;;;;;;4.87;4.33;;;;;;;;;;5012425;28;20265;-67
2021/05/31 14:42:33;;;;;;;4.97;4.57;;;;;;;;;;5012242;28;20285;-68
2021/05/31 14:44:59;;;;;;;4.83;4.00;;;;;;;;;;5012818;28;20206;-68
2021/05/31 14:47:27;;;;;;;4.40;4.00;;;;;;;;;;5012474;28;20626;-67
2021/05/31 14:49:53;;;;;;;4.63;4.23;;;;;;;;;;5012895;28;20696;-70
2021/05/31 14:52:20;;;;;;;4.80;3.93;;;;;;;;;;5011145;28;20653;-68
2021/05/31 14:54:47;;;;;;;4.27;3.87;;;;;;;;;;5012987;28;20711;-69
2021/05/31 14:57:13;;;;;;;5.43;4.20;;;;;;;;;;5011227;28;20206;-70